Terminal Aerodrome Forecast
Issued by NWS

Home | Current Version | Previous Version | Text Only | Print | Product List | Glossary On
Versions: 1 2 3 4 5 6 7 8 9 10 11 12 13
651
FTUS45 KVEF 180520
TAFEED
TAF
KEED 180520Z 1806/1906 30007KT P6SM SKC
     FM181400 VRB04KT P6SM SKC
     FM182200 19007KT P6SM SCT250
     FM190300 22008KT P6SM SCT080 BKN150=

USA.gov is the U.S. government's official web portal to all federal, state and local government web resources and services.